Buford, WY

7:27 AM MDT on May 03, 2015 (GMT -0600)
MesoWest | | Change Station
CLOSE
Current Station
Personal Weather Station
Location: Buford, WY
Elevation: 7881 ft
Nearby Weather Stations

Elev 7881 ft 41.12 °N, 105.31 °W | Updated 1 hour ago

Clear
Clear
40 °F
Feels Like 40 °F
N
Wind Variable Wind from North
Gusts 0.0 mph

Today
High -- | Low -- °F
--% Chance of Precip.
Yesterday
High -- | Low -- °F
Precip. -- in
5:56 AM 8:00 PM
Full, 100% visible
Pressure 29.74 in
Visibility 10.0 miles
Clouds Clear
Windchill 40 °F
Dew Point Not available.
Humidity Not available.
Rainfall in
Snow Depth Not available.
UV 1 out of 12
Pollen 10.40 out of 12
Air Quality Not available.
Flu Activity Sporadic
METAR KFEW 031256Z AUTO 29016G23KT 10SM CLR 12/01 A2990 RMK AO2 SLP071 T01160005 $

More Conditions Fewer Conditions

Pressure 29.74 in
Visibility 10.0 miles
Clouds Clear
Windchill 40 °F
Dew Point Not available.
Humidity Not available.
Rainfall in
Snow Depth Not available.
UV 1 out of 12
Pollen 10.40 out of 12
Air Quality Not available.
Flu Activity Sporadic
METAR KFEW 031256Z AUTO 29016G23KT 10SM CLR 12/01 A2990 RMK AO2 SLP071 T01160005 $

More Conditions Fewer Conditions

Nepal has a long way to go to dig out and rebuild from a devastating earthquake. We have teamed up with several charities and organizations to make contributing to the relief effort as easy as possible.
How you can help: Portlight Strategies | Red Cross

10-Day Weather Forecast

Almanac

Astronomy

May. 03, 2015 Rise Set
Actual Time
Civil Twilight
Nautical Twilight
Astronomical Twilight
Moon
Length of Visible Light
Length of Day
Tomorrow will be .
, % of the Moon is Illuminated

Today's Extremes

State Highs State Lows

Community

WunderPhotos

Upload Photos

1,818,217 photos uploaded!

WunderBlogs® & News

Nearby

Air Quality

  Air Quality AQ Index Pollutant
Not available.

Snow Depth

Station Depth Elevation

Earthquake Activity

City Distance Mag. Time & Date
Minimum magnitude displayed is 2.5.

Coastal Water Temperatures

Place Temperature

Stations

Nearby Weather Stations

Station Location Temp. Windchill Dew Point Humidity Wind Precip. Elev Updated Type